sensor_id;sensor_type;location;lat;lon;timestamp;pressure;altitude;pressure_sealevel;temperature;humidity
53506;BME280;39388;50.936;6.848;2023-03-21T00:00:28;101101.09;;;11.18;67.91
53506;BME280;39388;50.936;6.848;2023-03-21T00:03:02;101111.38;;;11.28;67.93
53506;BME280;39388;50.936;6.848;2023-03-21T00:05:39;101084.72;;;11.16;67.84
53506;BME280;39388;50.936;6.848;2023-03-21T00:08:10;101076.13;;;11.10;67.69
53506;BME280;39388;50.936;6.848;2023-03-21T00:10:40;100980.72;;;10.49;67.79
53506;BME280;39388;50.936;6.848;2023-03-21T00:13:11;101162.97;;;11.59;67.99
53506;BME280;39388;50.936;6.848;2023-03-21T00:15:42;100960.97;;;10.42;68.17
53506;BME280;39388;50.936;6.848;2023-03-21T00:18:23;101009.94;;;10.70;67.92
53506;BME280;39388;50.936;6.848;2023-03-21T00:20:59;101154.38;;;11.60;68.13
53506;BME280;39388;50.936;6.848;2023-03-21T00:23:34;100996.22;;;10.66;67.82
53506;BME280;39388;50.936;6.848;2023-03-21T00:26:05;101082.13;;;11.21;68.08
53506;BME280;39388;50.936;6.848;2023-03-21T00:28:42;101028.84;;;10.92;68.00
53506;BME280;39388;50.936;6.848;2023-03-21T00:31:23;101134.56;;;11.57;68.10
53506;BME280;39388;50.936;6.848;2023-03-21T00:33:57;101010.81;;;10.75;68.00
53506;BME280;39388;50.936;6.848;2023-03-21T00:36:28;100977.31;;;10.60;68.20
53506;BME280;39388;50.936;6.848;2023-03-21T00:38:58;101113.94;;;11.42;67.93
53506;BME280;39388;50.936;6.848;2023-03-21T00:41:32;100978.16;;;10.62;67.92
53506;BME280;39388;50.936;6.848;2023-03-21T00:44:05;100979.88;;;10.63;68.07
53506;BME280;39388;50.936;6.848;2023-03-21T00:46:39;100982.47;;;10.63;68.12
53506;BME280;39388;50.936;6.848;2023-03-21T00:49:14;101025.41;;;10.90;68.19
53506;BME280;39388;50.936;6.848;2023-03-21T00:51:46;101034.00;;;10.97;68.30
53506;BME280;39388;50.936;6.848;2023-03-21T00:54:20;101034.00;;;11.05;68.29
53506;BME280;39388;50.936;6.848;2023-03-21T00:56:51;101083.00;;;11.31;68.19
53506;BME280;39388;50.936;6.848;2023-03-21T00:59:21;101052.03;;;11.17;68.43
53506;BME280;39388;50.936;6.848;2023-03-21T01:01:52;101107.06;;;11.48;68.16
53506;BME280;39388;50.936;6.848;2023-03-21T01:04:22;101006.50;;;10.88;68.22
53506;BME280;39388;50.936;6.848;2023-03-21T01:06:56;101022.81;;;10.99;68.63
53506;BME280;39388;50.936;6.848;2023-03-21T01:09:27;100974.72;;;10.72;68.30
53506;BME280;39388;50.936;6.848;2023-03-21T01:11:57;100978.13;;;10.76;68.46
53506;BME280;39388;50.936;6.848;2023-03-21T01:14:28;100996.19;;;10.80;68.33
53506;BME280;39388;50.936;6.848;2023-03-21T01:16:58;101095.84;;;11.48;68.38
53506;BME280;39388;50.936;6.848;2023-03-21T01:19:28;101092.44;;;11.44;68.53
53506;BME280;39388;50.936;6.848;2023-03-21T01:21:59;101099.31;;;11.48;68.59
53506;BME280;39388;50.936;6.848;2023-03-21T01:24:30;101091.56;;;11.45;68.58
53506;BME280;39388;50.936;6.848;2023-03-21T01:27:01;101085.53;;;11.42;68.64
53506;BME280;39388;50.936;6.848;2023-03-21T01:29:32;101092.41;;;11.49;68.89
53506;BME280;39388;50.936;6.848;2023-03-21T01:32:02;101084.66;;;11.46;68.94
53506;BME280;39388;50.936;6.848;2023-03-21T01:34:32;101082.94;;;11.42;69.23
53506;BME280;39388;50.936;6.848;2023-03-21T01:37:03;101083.81;;;11.42;69.26
53506;BME280;39388;50.936;6.848;2023-03-21T01:39:33;101085.53;;;11.42;69.32
53506;BME280;39388;50.936;6.848;2023-03-21T01:42:04;101081.25;;;11.42;69.27
53506;BME280;39388;50.936;6.848;2023-03-21T01:44:54;101083.81;;;11.44;69.50
53506;BME280;39388;50.936;6.848;2023-03-21T01:47:25;101083.81;;;11.42;69.29
53506;BME280;39388;50.936;6.848;2023-03-21T01:49:58;101076.91;;;11.43;69.51
53506;BME280;39388;50.936;6.848;2023-03-21T01:52:35;101083.81;;;11.39;69.55
53506;BME280;39388;50.936;6.848;2023-03-21T01:55:09;101082.09;;;11.41;69.17
53506;BME280;39388;50.936;6.848;2023-03-21T01:57:45;101078.66;;;11.39;69.33
53506;BME280;39388;50.936;6.848;2023-03-21T02:00:16;101072.63;;;11.37;69.29
53506;BME280;39388;50.936;6.848;2023-03-21T02:02:47;101064.03;;;11.33;69.80
53506;BME280;39388;50.936;6.848;2023-03-21T02:05:34;101061.47;;;11.37;69.69
53506;BME280;39388;50.936;6.848;2023-03-21T02:08:07;101064.03;;;11.35;70.05
53506;BME280;39388;50.936;6.848;2023-03-21T02:10:38;101056.31;;;11.32;70.16
53506;BME280;39388;50.936;6.848;2023-03-21T02:13:10;101053.72;;;11.30;69.84
53506;BME280;39388;50.936;6.848;2023-03-21T02:15:45;101044.25;;;11.29;70.21
53506;BME280;39388;50.936;6.848;2023-03-21T02:18:49;101039.09;;;11.29;70.29
53506;BME280;39388;50.936;6.848;2023-03-21T02:24:28;101029.63;;;11.28;70.22
53506;BME280;39388;50.936;6.848;2023-03-21T02:27:15;101027.91;;;11.30;70.09
53506;BME280;39388;50.936;6.848;2023-03-21T02:30:15;101024.47;;;11.28;70.36
53506;BME280;39388;50.936;6.848;2023-03-21T02:33:12;101021.88;;;11.28;69.83
53506;BME280;39388;50.936;6.848;2023-03-21T02:38:40;101021.91;;;11.27;69.97
53506;BME280;39388;50.936;6.848;2023-03-21T02:41:16;101025.31;;;11.27;70.42
53506;BME280;39388;50.936;6.848;2023-03-21T02:44:07;101027.91;;;11.26;70.49
53506;BME280;39388;50.936;6.848;2023-03-21T02:46:49;101027.06;;;11.27;70.14
53506;BME280;39388;50.936;6.848;2023-03-21T02:49:23;101023.63;;;11.26;70.27
53506;BME280;39388;50.936;6.848;2023-03-21T02:51:58;101018.47;;;11.23;70.04
53506;BME280;39388;50.936;6.848;2023-03-21T02:54:29;101031.34;;;11.28;69.98
53506;BME280;39388;50.936;6.848;2023-03-21T02:57:01;101021.91;;;11.24;70.42
53506;BME280;39388;50.936;6.848;2023-03-21T02:59:34;101019.34;;;11.25;70.35
53506;BME280;39388;50.936;6.848;2023-03-21T03:02:04;101018.47;;;11.23;70.59
53506;BME280;39388;50.936;6.848;2023-03-21T03:04:35;101022.78;;;11.24;70.19
53506;BME280;39388;50.936;6.848;2023-03-21T03:15:44;101002.13;;;11.15;70.82
53506;BME280;39388;50.936;6.848;2023-03-21T03:18:29;101013.31;;;11.15;70.38
53506;BME280;39388;50.936;6.848;2023-03-21T03:21:12;101000.44;;;11.05;70.98
53506;BME280;39388;50.936;6.848;2023-03-21T03:23:56;101002.19;;;11.04;70.89
53506;BME280;39388;50.936;6.848;2023-03-21T03:26:40;100993.59;;;10.97;71.25
53506;BME280;39388;50.936;6.848;2023-03-21T03:29:18;100996.16;;;10.97;71.24
53506;BME280;39388;50.936;6.848;2023-03-21T03:34:42;100988.44;;;10.88;71.36
53506;BME280;39388;50.936;6.848;2023-03-21T03:37:16;100986.72;;;10.90;71.44
53506;BME280;39388;50.936;6.848;2023-03-21T03:39:56;100985.00;;;10.92;71.65
53506;BME280;39388;50.936;6.848;2023-03-21T03:42:36;100973.81;;;10.88;71.45
53506;BME280;39388;50.936;6.848;2023-03-21T03:45:09;100980.69;;;10.93;71.71
53506;BME280;39388;50.936;6.848;2023-03-21T03:47:56;100972.09;;;10.91;71.72
53506;BME280;39388;50.936;6.848;2023-03-21T03:50:29;100981.56;;;10.96;71.45
53506;BME280;39388;50.936;6.848;2023-03-21T03:53:22;100976.38;;;10.98;71.62
53506;BME280;39388;50.936;6.848;2023-03-21T03:55:55;100974.66;;;11.00;71.66
53506;BME280;39388;50.936;6.848;2023-03-21T03:58:26;100974.63;;;11.01;71.55
53506;BME280;39388;50.936;6.848;2023-03-21T04:00:58;100973.78;;;11.02;71.60
53506;BME280;39388;50.936;6.848;2023-03-21T04:03:28;100964.34;;;11.00;71.50
53506;BME280;39388;50.936;6.848;2023-03-21T04:05:59;100964.34;;;11.00;71.50
53506;BME280;39388;50.936;6.848;2023-03-21T04:08:29;100963.47;;;10.99;71.58
53506;BME280;39388;50.936;6.848;2023-03-21T04:11:00;100973.78;;;11.02;71.53
53506;BME280;39388;50.936;6.848;2023-03-21T04:13:32;100964.31;;;11.05;71.42
53506;BME280;39388;50.936;6.848;2023-03-21T04:16:03;100969.47;;;11.05;71.73
53506;BME280;39388;50.936;6.848;2023-03-21T04:18:33;100967.78;;;11.05;71.31
53506;BME280;39388;50.936;6.848;2023-03-21T04:21:11;100962.59;;;11.03;71.63
53506;BME280;39388;50.936;6.848;2023-03-21T04:23:42;100964.34;;;11.03;71.36
53506;BME280;39388;50.936;6.848;2023-03-21T04:26:12;100954.88;;;10.97;71.65
53506;BME280;39388;50.936;6.848;2023-03-21T04:28:43;100958.31;;;10.99;71.51
53506;BME280;39388;50.936;6.848;2023-03-21T04:31:13;100967.75;;;11.03;71.63
53506;BME280;39388;50.936;6.848;2023-03-21T04:33:43;100969.47;;;11.05;71.95
53506;BME280;39388;50.936;6.848;2023-03-21T04:36:14;100967.75;;;11.03;71.87
53506;BME280;39388;50.936;6.848;2023-03-21T04:38:56;100962.63;;;11.05;71.81
53506;BME280;39388;50.936;6.848;2023-03-21T04:41:30;100966.88;;;11.06;71.61
53506;BME280;39388;50.936;6.848;2023-03-21T04:44:01;100958.28;;;11.06;71.75
53506;BME280;39388;50.936;6.848;2023-03-21T04:46:32;100950.56;;;11.02;71.63
53506;BME280;39388;50.936;6.848;2023-03-21T04:49:03;100945.38;;;11.06;71.78
53506;BME280;39388;50.936;6.848;2023-03-21T04:51:36;100948.00;;;11.04;71.65
53506;BME280;39388;50.936;6.848;2023-03-21T04:54:07;100941.09;;;11.03;71.89
53506;BME280;39388;50.936;6.848;2023-03-21T04:56:38;100943.66;;;11.06;72.17
53506;BME280;39388;50.936;6.848;2023-03-21T04:59:11;100949.69;;;11.08;71.88
53506;BME280;39388;50.936;6.848;2023-03-21T05:01:43;100948.81;;;11.09;72.08
53506;BME280;39388;50.936;6.848;2023-03-21T05:04:13;100942.84;;;11.04;72.03
53506;BME280;39388;50.936;6.848;2023-03-21T05:06:45;100927.34;;;11.01;72.13
53506;BME280;39388;50.936;6.848;2023-03-21T05:09:15;100941.09;;;11.05;72.11
53506;BME280;39388;50.936;6.848;2023-03-21T05:11:45;100935.09;;;11.01;72.06
53506;BME280;39388;50.936;6.848;2023-03-21T05:14:19;100935.91;;;11.06;72.61
53506;BME280;39388;50.936;6.848;2023-03-21T05:16:50;100953.13;;;11.10;72.56
53506;BME280;39388;50.936;6.848;2023-03-21T05:19:27;100941.94;;;11.11;72.02
53506;BME280;39388;50.936;6.848;2023-03-21T05:22:06;100941.09;;;11.11;72.56
53506;BME280;39388;50.936;6.848;2023-03-21T05:24:37;100942.78;;;11.10;72.05
53506;BME280;39388;50.936;6.848;2023-03-21T05:27:08;100935.94;;;11.08;72.32
53506;BME280;39388;50.936;6.848;2023-03-21T05:29:38;100933.34;;;11.05;72.33
53506;BME280;39388;50.936;6.848;2023-03-21T05:32:09;100946.22;;;11.12;72.61
53506;BME280;39388;50.936;6.848;2023-03-21T05:34:39;100949.66;;;11.13;72.28
53506;BME280;39388;50.936;6.848;2023-03-21T05:37:09;100949.66;;;11.14;72.36
53506;BME280;39388;50.936;6.848;2023-03-21T05:39:40;100948.78;;;11.14;72.61
53506;BME280;39388;50.936;6.848;2023-03-21T05:42:10;100941.94;;;11.14;72.35
53506;BME280;39388;50.936;6.848;2023-03-21T05:44:40;100928.22;;;11.03;72.31
53506;BME280;39388;50.936;6.848;2023-03-21T05:47:13;100948.78;;;11.14;72.32
53506;BME280;39388;50.936;6.848;2023-03-21T05:49:44;100946.22;;;11.15;72.37
53506;BME280;39388;50.936;6.848;2023-03-21T05:52:14;100945.38;;;11.13;72.77
53506;BME280;39388;50.936;6.848;2023-03-21T05:54:45;100951.38;;;11.17;72.78
53506;BME280;39388;50.936;6.848;2023-03-21T05:57:15;100936.75;;;11.16;72.73
53506;BME280;39388;50.936;6.848;2023-03-21T05:59:48;100955.66;;;11.23;72.66
53506;BME280;39388;50.936;6.848;2023-03-21T06:02:18;100945.34;;;11.21;72.61
53506;BME280;39388;50.936;6.848;2023-03-21T06:04:49;100942.75;;;11.23;72.51
53506;BME280;39388;50.936;6.848;2023-03-21T06:07:19;100936.72;;;11.24;72.53
53506;BME280;39388;50.936;6.848;2023-03-21T06:09:50;100935.03;;;11.21;72.97
53506;BME280;39388;50.936;6.848;2023-03-21T06:12:20;100951.34;;;11.31;72.65
53506;BME280;39388;50.936;6.848;2023-03-21T06:14:51;100954.75;;;11.31;72.64
53506;BME280;39388;50.936;6.848;2023-03-21T06:17:21;100955.59;;;11.35;72.87
53506;BME280;39388;50.936;6.848;2023-03-21T06:19:51;100952.19;;;11.33;72.52
53506;BME280;39388;50.936;6.848;2023-03-21T06:22:22;100947.00;;;11.36;73.01
53506;BME280;39388;50.936;6.848;2023-03-21T06:24:52;100945.28;;;11.33;72.92
53506;BME280;39388;50.936;6.848;2023-03-21T06:27:23;100963.31;;;11.44;72.34
53506;BME280;39388;50.936;6.848;2023-03-21T06:29:53;100954.72;;;11.45;72.66
53506;BME280;39388;50.936;6.848;2023-03-21T06:32:24;100959.84;;;11.47;72.55
53506;BME280;39388;50.936;6.848;2023-03-21T06:34:54;100964.16;;;11.48;73.10
53506;BME280;39388;50.936;6.848;2023-03-21T06:37:25;100954.69;;;11.47;73.12
53506;BME280;39388;50.936;6.848;2023-03-21T06:39:56;100967.63;;;11.48;72.65
53506;BME280;39388;50.936;6.848;2023-03-21T06:42:26;100976.19;;;11.52;72.71
53506;BME280;39388;50.936;6.848;2023-03-21T06:44:57;100953.84;;;11.45;73.00
53506;BME280;39388;50.936;6.848;2023-03-21T06:47:27;100969.31;;;11.54;72.77
53506;BME280;39388;50.936;6.848;2023-03-21T06:49:58;100964.13;;;11.54;72.97
53506;BME280;39388;50.936;6.848;2023-03-21T06:52:28;100974.41;;;11.60;72.88
53506;BME280;39388;50.936;6.848;2023-03-21T06:54:58;100966.69;;;11.60;72.98
53506;BME280;39388;50.936;6.848;2023-03-21T06:57:29;100966.69;;;11.59;73.21
53506;BME280;39388;50.936;6.848;2023-03-21T06:59:59;100977.88;;;11.61;73.23
53506;BME280;39388;50.936;6.848;2023-03-21T07:02:29;100977.88;;;11.59;72.91
53506;BME280;39388;50.936;6.848;2023-03-21T07:05:00;100971.88;;;11.56;73.19
53506;BME280;39388;50.936;6.848;2023-03-21T07:07:30;100971.00;;;11.54;73.68
53506;BME280;39388;50.936;6.848;2023-03-21T07:10:02;100977.91;;;11.53;74.37
53506;BME280;39388;50.936;6.848;2023-03-21T07:12:33;100977.94;;;11.50;74.56
53506;BME280;39388;50.936;6.848;2023-03-21T07:15:06;100974.50;;;11.43;74.75
53506;BME280;39388;50.936;6.848;2023-03-21T07:17:36;100984.78;;;11.49;75.08
53506;BME280;39388;50.936;6.848;2023-03-21T07:20:07;100977.94;;;11.47;75.51
53506;BME280;39388;50.936;6.848;2023-03-21T07:22:38;100968.47;;;11.44;76.04
53506;BME280;39388;50.936;6.848;2023-03-21T07:25:09;100971.94;;;11.43;76.47
53506;BME280;39388;50.936;6.848;2023-03-21T07:27:39;100979.66;;;11.48;77.02
53506;BME280;39388;50.936;6.848;2023-03-21T07:30:11;100986.50;;;11.54;77.14
53506;BME280;39388;50.936;6.848;2023-03-21T07:32:41;100970.19;;;11.48;77.45
53506;BME280;39388;50.936;6.848;2023-03-21T07:35:13;100980.47;;;11.56;77.62
53506;BME280;39388;50.936;6.848;2023-03-21T07:37:45;100979.63;;;11.53;77.59
53506;BME280;39388;50.936;6.848;2023-03-21T07:40:16;100982.22;;;11.49;78.01
53506;BME280;39388;50.936;6.848;2023-03-21T07:42:48;100979.63;;;11.49;78.40
53506;BME280;39388;50.936;6.848;2023-03-21T07:45:20;100983.09;;;11.50;78.68
53506;BME280;39388;50.936;6.848;2023-03-21T07:47:52;100980.50;;;11.50;78.62
53506;BME280;39388;50.936;6.848;2023-03-21T07:50:23;100983.94;;;11.54;79.20
53506;BME280;39388;50.936;6.848;2023-03-21T07:52:54;100977.03;;;11.53;78.90
53506;BME280;39388;50.936;6.848;2023-03-21T07:55:24;100977.88;;;11.56;79.25
53506;BME280;39388;50.936;6.848;2023-03-21T07:57:54;100979.59;;;11.59;79.17
53506;BME280;39388;50.936;6.848;2023-03-21T08:00:25;100974.44;;;11.59;79.51
53506;BME280;39388;50.936;6.848;2023-03-21T08:02:56;100982.19;;;11.59;79.69
53506;BME280;39388;50.936;6.848;2023-03-21T08:05:32;100982.19;;;11.59;79.86
53506;BME280;39388;50.936;6.848;2023-03-21T08:08:04;100979.63;;;11.56;79.33
53506;BME280;39388;50.936;6.848;2023-03-21T08:10:35;100969.25;;;11.57;79.95
53506;BME280;39388;50.936;6.848;2023-03-21T08:13:05;100979.59;;;11.57;80.16
53506;BME280;39388;50.936;6.848;2023-03-21T08:15:36;100979.59;;;11.60;80.43
53506;BME280;39388;50.936;6.848;2023-03-21T08:18:07;100977.88;;;11.59;80.48
53506;BME280;39388;50.936;6.848;2023-03-21T08:20:38;100979.59;;;11.62;81.04
53506;BME280;39388;50.936;6.848;2023-03-21T08:23:08;100983.00;;;11.66;80.65
53506;BME280;39388;50.936;6.848;2023-03-21T08:25:38;100978.69;;;11.66;81.23
53506;BME280;39388;50.936;6.848;2023-03-21T08:28:09;100977.00;;;11.67;81.03
53506;BME280;39388;50.936;6.848;2023-03-21T08:30:39;100976.09;;;11.69;81.12
53506;BME280;39388;50.936;6.848;2023-03-21T08:33:10;100974.38;;;11.71;81.26
53506;BME280;39388;50.936;6.848;2023-03-21T08:35:40;100982.97;;;11.73;80.86
53506;BME280;39388;50.936;6.848;2023-03-21T08:38:11;100988.13;;;11.76;81.40
53506;BME280;39388;50.936;6.848;2023-03-21T08:40:41;100974.34;;;11.76;81.22
53506;BME280;39388;50.936;6.848;2023-03-21T08:43:11;100975.22;;;11.76;81.29
53506;BME280;39388;50.936;6.848;2023-03-21T08:45:43;100982.97;;;11.79;81.69
53506;BME280;39388;50.936;6.848;2023-03-21T08:48:13;100982.94;;;11.83;81.47
53506;BME280;39388;50.936;6.848;2023-03-21T08:50:44;100981.25;;;11.83;81.54
53506;BME280;39388;50.936;6.848;2023-03-21T08:53:14;100980.38;;;11.84;82.11
53506;BME280;39388;50.936;6.848;2023-03-21T08:55:45;100975.22;;;11.79;81.90
53506;BME280;39388;50.936;6.848;2023-03-21T08:58:16;100971.78;;;11.74;81.94
53506;BME280;39388;50.936;6.848;2023-03-21T09:00:46;100967.47;;;11.73;81.95
53506;BME280;39388;50.936;6.848;2023-03-21T09:03:17;100970.06;;;11.78;82.14
53506;BME280;39388;50.936;6.848;2023-03-21T09:05:52;100967.47;;;11.81;82.10
53506;BME280;39388;50.936;6.848;2023-03-21T09:08:23;100966.63;;;11.79;81.85
53506;BME280;39388;50.936;6.848;2023-03-21T09:10:54;100955.41;;;11.78;82.03
53506;BME280;39388;50.936;6.848;2023-03-21T09:13:25;100964.88;;;11.83;82.09
53506;BME280;39388;50.936;6.848;2023-03-21T09:15:55;100963.16;;;11.80;81.94
53506;BME280;39388;50.936;6.848;2023-03-21T09:18:30;100966.56;;;11.85;82.15
53506;BME280;39388;50.936;6.848;2023-03-21T09:21:21;100957.03;;;11.92;81.94
53506;BME280;39388;50.936;6.848;2023-03-21T09:23:53;100961.34;;;11.96;82.03
53506;BME280;39388;50.936;6.848;2023-03-21T09:26:25;100961.28;;;12.05;81.51
53506;BME280;39388;50.936;6.848;2023-03-21T09:28:57;100966.38;;;12.15;81.21
53506;BME280;39388;50.936;6.848;2023-03-21T09:31:28;100961.97;;;12.26;81.09
53506;BME280;39388;50.936;6.848;2023-03-21T09:33:59;100963.66;;;12.33;81.22
53506;BME280;39388;50.936;6.848;2023-03-21T09:36:29;100966.19;;;12.39;80.87
53506;BME280;39388;50.936;6.848;2023-03-21T09:39:04;100965.31;;;12.40;80.99
53506;BME280;39388;50.936;6.848;2023-03-21T09:47:07;100959.34;;;12.32;81.15
53506;BME280;39388;50.936;6.848;2023-03-21T09:49:45;100961.13;;;12.25;81.77
53506;BME280;39388;50.936;6.848;2023-03-21T09:52:22;100962.88;;;12.23;81.74
53506;BME280;39388;50.936;6.848;2023-03-21T09:54:55;100968.03;;;12.22;81.95
53506;BME280;39388;50.936;6.848;2023-03-21T09:57:32;100953.41;;;12.22;81.53
53506;BME280;39388;50.936;6.848;2023-03-21T10:00:06;100949.94;;;12.23;81.72
53506;BME280;39388;50.936;6.848;2023-03-21T10:02:49;100955.09;;;12.22;81.25
53506;BME280;39388;50.936;6.848;2023-03-21T10:05:28;100952.53;;;12.22;81.38
53506;BME280;39388;50.936;6.848;2023-03-21T10:08:07;100953.41;;;12.21;81.46
53506;BME280;39388;50.936;6.848;2023-03-21T10:10:50;100943.06;;;12.19;81.52
53506;BME280;39388;50.936;6.848;2023-03-21T10:13:24;100938.78;;;12.15;81.13
53506;BME280;39388;50.936;6.848;2023-03-21T10:16:25;100947.41;;;12.16;81.47
53506;BME280;39388;50.936;6.848;2023-03-21T10:18:58;100930.22;;;12.12;81.31
53506;BME280;39388;50.936;6.848;2023-03-21T10:21:30;100934.53;;;12.09;81.09
53506;BME280;39388;50.936;6.848;2023-03-21T10:24:00;100938.81;;;12.14;81.04
53506;BME280;39388;50.936;6.848;2023-03-21T10:26:31;100937.91;;;12.19;81.19
53506;BME280;39388;50.936;6.848;2023-03-21T10:29:02;100920.66;;;12.21;81.24
53506;BME280;39388;50.936;6.848;2023-03-21T10:31:32;100928.34;;;12.29;80.92
53506;BME280;39388;50.936;6.848;2023-03-21T10:34:53;100928.31;;;12.34;81.17
53506;BME280;39388;50.936;6.848;2023-03-21T10:36:59;100926.56;;;12.36;80.85
53506;BME280;39388;50.936;6.848;2023-03-21T10:39:41;100917.06;;;12.36;80.82
53506;BME280;39388;50.936;6.848;2023-03-21T10:42:22;100911.94;;;12.35;80.65
53506;BME280;39388;50.936;6.848;2023-03-21T10:44:55;100904.94;;;12.43;80.62
53506;BME280;39388;50.936;6.848;2023-03-21T10:47:28;100909.13;;;12.56;80.51
53506;BME280;39388;50.936;6.848;2023-03-21T10:50:06;100897.78;;;12.71;80.36
53506;BME280;39388;50.936;6.848;2023-03-21T10:52:41;100892.41;;;12.89;79.91
53506;BME280;39388;50.936;6.848;2023-03-21T10:55:34;100889.72;;;12.98;79.63
53506;BME280;39388;50.936;6.848;2023-03-21T10:58:15;100892.31;;;12.96;79.40
53506;BME280;39388;50.936;6.848;2023-03-21T11:00:47;100882.03;;;12.89;79.38
53506;BME280;39388;50.936;6.848;2023-03-21T11:03:25;100862.38;;;12.75;79.17
53506;BME280;39388;50.936;6.848;2023-03-21T11:06:05;100870.97;;;12.77;79.29
53506;BME280;39388;50.936;6.848;2023-03-21T11:08:38;100868.41;;;12.76;78.75
53506;BME280;39388;50.936;6.848;2023-03-21T11:11:19;100867.53;;;12.77;78.95
53506;BME280;39388;50.936;6.848;2023-03-21T11:13:59;100855.41;;;12.80;79.40
53506;BME280;39388;50.936;6.848;2023-03-21T11:16:42;100847.66;;;12.80;78.85
53506;BME280;39388;50.936;6.848;2023-03-21T11:19:28;100856.16;;;12.89;78.67
53506;BME280;39388;50.936;6.848;2023-03-21T11:22:05;100841.44;;;12.94;78.50
53506;BME280;39388;50.936;6.848;2023-03-21T11:24:36;100846.63;;;12.94;78.35
53506;BME280;39388;50.936;6.848;2023-03-21T11:27:07;100838.81;;;12.95;78.25
53506;BME280;39388;50.936;6.848;2023-03-21T11:29:39;100837.94;;;12.98;78.66
53506;BME280;39388;50.936;6.848;2023-03-21T11:32:25;100843.13;;;12.96;78.67
53506;BME280;39388;50.936;6.848;2023-03-21T11:35:22;100837.16;;;12.93;78.57
53506;BME280;39388;50.936;6.848;2023-03-21T11:37:55;100834.63;;;12.86;78.41
53506;BME280;39388;50.936;6.848;2023-03-21T11:45:33;100832.19;;;12.76;78.49
53506;BME280;39388;50.936;6.848;2023-03-21T11:48:12;100837.38;;;12.74;78.75
53506;BME280;39388;50.936;6.848;2023-03-21T11:50:46;100838.25;;;12.71;78.54
53506;BME280;39388;50.936;6.848;2023-03-21T11:53:38;100835.66;;;12.73;78.45
53506;BME280;39388;50.936;6.848;2023-03-21T11:56:24;100837.38;;;12.71;78.54
53506;BME280;39388;50.936;6.848;2023-03-21T12:05:10;100836.72;;;12.55;78.64
53506;BME280;39388;50.936;6.848;2023-03-21T12:07:56;100831.56;;;12.53;79.13
53506;BME280;39388;50.936;6.848;2023-03-21T12:13:53;100830.72;;;12.53;79.05
53506;BME280;39388;50.936;6.848;2023-03-21T12:22:10;100804.81;;;12.56;79.60
53506;BME280;39388;50.936;6.848;2023-03-21T12:24:55;100818.47;;;12.67;79.72
53506;BME280;39388;50.936;6.848;2023-03-21T12:27:41;100804.69;;;12.65;79.45
53506;BME280;39388;50.936;6.848;2023-03-21T12:44:42;100807.84;;;12.91;79.34
53506;BME280;39388;50.936;6.848;2023-03-21T12:47:18;100798.22;;;12.99;79.47
53506;BME280;39388;50.936;6.848;2023-03-21T12:49:55;100796.41;;;13.07;79.94
53506;BME280;39388;50.936;6.848;2023-03-21T12:52:33;100785.94;;;13.13;79.51
53506;BME280;39388;50.936;6.848;2023-03-21T12:57:47;100774.44;;;13.33;79.29
53506;BME280;39388;50.936;6.848;2023-03-21T13:00:21;100783.03;;;13.38;78.72
53506;BME280;39388;50.936;6.848;2023-03-21T13:03:03;100788.09;;;13.44;78.55
53506;BME280;39388;50.936;6.848;2023-03-21T13:05:49;100779.56;;;13.39;78.66
53506;BME280;39388;50.936;6.848;2023-03-21T13:08:27;100771.69;;;13.45;78.48
53506;BME280;39388;50.936;6.848;2023-03-21T13:11:01;100770.84;;;13.45;78.21
53506;BME280;39388;50.936;6.848;2023-03-21T13:16:39;100768.13;;;13.53;77.77
53506;BME280;39388;50.936;6.848;2023-03-21T13:19:42;100755.19;;;13.53;77.83
53506;BME280;39388;50.936;6.848;2023-03-21T13:22:29;100755.06;;;13.60;77.56
53506;BME280;39388;50.936;6.848;2023-03-21T13:28:03;100748.88;;;13.68;77.12
53506;BME280;39388;50.936;6.848;2023-03-21T13:30:34;100733.41;;;13.63;77.03
53506;BME280;39388;50.936;6.848;2023-03-21T13:33:06;100747.16;;;13.67;77.05
53506;BME280;39388;50.936;6.848;2023-03-21T13:35:39;100735.03;;;13.70;76.97
53506;BME280;39388;50.936;6.848;2023-03-21T13:38:24;100715.19;;;13.68;76.58
53506;BME280;39388;50.936;6.848;2023-03-21T13:41:37;100718.38;;;13.82;76.37
53506;BME280;39388;50.936;6.848;2023-03-21T13:44:22;100720.88;;;13.87;75.83
53506;BME280;39388;50.936;6.848;2023-03-21T13:47:01;100716.53;;;13.89;75.85
53506;BME280;39388;50.936;6.848;2023-03-21T13:49:36;100716.53;;;13.90;75.87
53506;BME280;39388;50.936;6.848;2023-03-21T13:54:43;100720.75;;;13.95;75.17
53506;BME280;39388;50.936;6.848;2023-03-21T14:03:12;100688.56;;;14.06;75.32
53506;BME280;39388;50.936;6.848;2023-03-21T14:05:49;100687.63;;;14.09;74.95
53506;BME280;39388;50.936;6.848;2023-03-21T14:08:20;100692.75;;;14.12;75.01
53506;BME280;39388;50.936;6.848;2023-03-21T14:10:53;100680.56;;;14.17;74.98
53506;BME280;39388;50.936;6.848;2023-03-21T14:13:26;100688.34;;;14.17;74.71
53506;BME280;39388;50.936;6.848;2023-03-21T14:16:03;100683.94;;;14.21;74.69
53506;BME280;39388;50.936;6.848;2023-03-21T14:18:46;100674.50;;;14.17;74.85
53506;BME280;39388;50.936;6.848;2023-03-21T14:21:52;100677.88;;;14.22;74.64
53506;BME280;39388;50.936;6.848;2023-03-21T14:24:23;100667.44;;;14.25;74.55
53506;BME280;39388;50.936;6.848;2023-03-21T14:26:54;100677.00;;;14.23;74.41
53506;BME280;39388;50.936;6.848;2023-03-21T14:29:28;100677.06;;;14.20;74.19
53506;BME280;39388;50.936;6.848;2023-03-21T14:32:00;100666.78;;;14.14;74.20
53506;BME280;39388;50.936;6.848;2023-03-21T14:34:32;100669.38;;;14.15;74.18
53506;BME280;39388;50.936;6.848;2023-03-21T14:37:06;100664.19;;;14.14;74.41
53506;BME280;39388;50.936;6.848;2023-03-21T14:39:37;100662.47;;;14.14;74.23
53506;BME280;39388;50.936;6.848;2023-03-21T14:42:11;100674.41;;;14.21;74.11